createdAt,value
2023-01-23T00:00:45.724Z,-0.01
2023-01-23T00:02:47.392Z,-0.01
2023-01-23T00:04:48.813Z,-0.03
2023-01-23T00:06:50.757Z,-0.03
2023-01-23T00:08:52.457Z,-0.01
2023-01-23T00:10:53.945Z,-0.01
2023-01-23T00:12:55.900Z,-0.02
2023-01-23T00:14:57.728Z,-0.04
2023-01-23T00:16:59.461Z,-0.04
2023-01-23T00:19:01.269Z,-0.06
2023-01-23T00:21:02.797Z,-0.04
2023-01-23T00:23:04.769Z,-0.05
2023-01-23T00:25:06.627Z,-0.07
2023-01-23T00:27:08.126Z,-0.06
2023-01-23T00:29:09.934Z,-0.05
2023-01-23T00:31:11.706Z,-0.05
2023-01-23T00:33:13.486Z,-0.06
2023-01-23T00:35:15.138Z,-0.07
2023-01-23T00:37:16.766Z,-0.05
2023-01-23T00:39:18.357Z,-0.04
2023-01-23T00:41:19.460Z,-0.02
2023-01-23T00:43:21.225Z,-0.07
2023-01-23T00:45:23.115Z,-0.07
2023-01-23T00:47:24.722Z,-0.05
2023-01-23T00:49:26.707Z,-0.03
2023-01-23T00:51:28.313Z,-0.06
2023-01-23T00:53:29.883Z,-0.08
2023-01-23T00:55:31.607Z,-0.07
2023-01-23T00:57:33.280Z,-0.05
2023-01-23T00:59:34.381Z,-0.08
2023-01-23T01:01:36.166Z,-0.07
2023-01-23T01:03:37.783Z,-0.08
2023-01-23T01:05:39.596Z,-0.06
2023-01-23T01:07:40.788Z,-0.06
2023-01-23T01:09:41.864Z,-0.07
2023-01-23T01:11:43.047Z,-0.06
2023-01-23T01:13:45.091Z,-0.09
2023-01-23T01:15:46.787Z,-0.08
2023-01-23T01:17:47.929Z,-0.09
2023-01-23T01:19:49.784Z,-0.09
2023-01-23T01:21:51.241Z,-0.11
2023-01-23T01:23:52.390Z,-0.13
2023-01-23T01:25:54.215Z,-0.11
2023-01-23T01:27:56.082Z,-0.1
2023-01-23T01:29:57.214Z,-0.13
2023-01-23T01:31:58.803Z,-0.14
2023-01-23T01:34:00.211Z,-0.12
2023-01-23T01:36:01.954Z,-0.11
2023-01-23T01:38:03.657Z,-0.13
2023-01-23T01:40:04.729Z,-0.14
2023-01-23T01:42:06.421Z,-0.12
2023-01-23T01:44:07.463Z,-0.14
2023-01-23T01:46:08.922Z,-0.12
2023-01-23T01:48:10.082Z,-0.13
2023-01-23T01:50:12.344Z,-0.13
2023-01-23T01:52:12.847Z,-0.14
2023-01-23T01:54:14.371Z,-0.13
2023-01-23T01:56:15.913Z,-0.09
2023-01-23T01:58:17.600Z,-0.12
2023-01-23T02:00:19.358Z,-0.15
2023-01-23T02:02:20.841Z,-0.15
2023-01-23T02:04:22.100Z,-0.17
2023-01-23T02:06:23.930Z,-0.15
2023-01-23T02:08:25.378Z,-0.17
2023-01-23T02:10:27.395Z,-0.15
2023-01-23T02:12:28.484Z,-0.18
2023-01-23T02:14:30.072Z,-0.19
2023-01-23T02:16:31.432Z,-0.19
2023-01-23T02:18:32.930Z,-0.2
2023-01-23T02:20:34.307Z,-0.19
2023-01-23T02:22:36.287Z,-0.22
2023-01-23T02:24:37.631Z,-0.25
2023-01-23T02:26:39.484Z,-0.25
2023-01-23T02:28:40.866Z,-0.25
2023-01-23T02:30:42.015Z,-0.25
2023-01-23T02:32:43.583Z,-0.26
2023-01-23T02:34:45.541Z,-0.28
2023-01-23T02:36:47.081Z,-0.28
2023-01-23T02:38:48.356Z,-0.28
2023-01-23T02:40:50.026Z,-0.26
2023-01-23T02:42:51.682Z,-0.26
2023-01-23T02:44:53.576Z,-0.3
2023-01-23T02:46:55.668Z,-0.26
2023-01-23T02:48:57.700Z,-0.25
2023-01-23T02:50:59.550Z,-0.27
2023-01-23T02:53:01.150Z,-0.29
2023-01-23T02:55:02.461Z,-0.29
2023-01-23T02:57:04.144Z,-0.3
2023-01-23T02:59:05.373Z,-0.3
2023-01-23T03:01:07.212Z,-0.33
2023-01-23T03:03:08.987Z,-0.29
2023-01-23T03:05:10.530Z,-0.32
2023-01-23T03:07:12.035Z,-0.28
2023-01-23T03:09:13.605Z,-0.28
2023-01-23T03:11:15.610Z,-0.31
2023-01-23T03:13:17.316Z,-0.29
2023-01-23T03:15:19.289Z,-0.28
2023-01-23T03:17:20.789Z,-0.31
2023-01-23T03:19:22.710Z,-0.28
2023-01-23T03:21:23.854Z,-0.29
2023-01-23T03:23:25.074Z,-0.27
2023-01-23T03:25:26.401Z,-0.28
2023-01-23T03:27:27.986Z,-0.31
2023-01-23T03:29:29.518Z,-0.28
2023-01-23T03:31:31.289Z,-0.25
2023-01-23T03:33:32.987Z,-0.24
2023-01-23T03:35:34.964Z,-0.26
2023-01-23T03:37:36.619Z,-0.24
2023-01-23T03:39:38.622Z,-0.25
2023-01-23T03:41:40.140Z,-0.24
2023-01-23T03:43:41.913Z,-0.23
2023-01-23T03:45:43.483Z,-0.22
2023-01-23T03:47:44.927Z,-0.25
2023-01-23T03:49:46.257Z,-0.25
2023-01-23T03:51:47.846Z,-0.24
2023-01-23T03:53:49.544Z,-0.25
2023-01-23T03:55:51.519Z,-0.23
2023-01-23T03:57:53.451Z,-0.24
2023-01-23T03:59:55.197Z,-0.24
2023-01-23T04:01:57.036Z,-0.25
2023-01-23T04:03:58.131Z,-0.21
2023-01-23T04:05:59.550Z,-0.25
2023-01-23T04:08:01.433Z,-0.21
2023-01-23T04:10:02.758Z,-0.21
2023-01-23T04:12:04.824Z,-0.23
2023-01-23T04:14:06.681Z,-0.25
2023-01-23T04:16:08.127Z,-0.25
2023-01-23T04:18:09.349Z,-0.23
2023-01-23T04:20:10.784Z,-0.23
2023-01-23T04:22:12.245Z,-0.24
2023-01-23T04:24:14.027Z,-0.25
2023-01-23T04:26:15.868Z,-0.24
2023-01-23T04:28:17.494Z,-0.26
2023-01-23T04:30:19.221Z,-0.27
2023-01-23T04:32:20.458Z,-0.27
2023-01-23T04:34:22.332Z,-0.27
2023-01-23T04:36:23.901Z,-0.27
2023-01-23T04:38:25.769Z,-0.26
2023-01-23T04:40:27.613Z,-0.28
2023-01-23T04:42:29.275Z,-0.27
2023-01-23T04:44:30.409Z,-0.26
2023-01-23T04:46:31.849Z,-0.26
2023-01-23T04:48:33.287Z,-0.26
2023-01-23T04:50:34.761Z,-0.25
2023-01-23T04:52:36.447Z,-0.25
2023-01-23T04:54:38.055Z,-0.24
2023-01-23T04:56:39.195Z,-0.25
2023-01-23T04:58:41.195Z,-0.26
2023-01-23T05:00:43.226Z,-0.21
2023-01-23T05:02:44.988Z,-0.22
2023-01-23T05:04:46.469Z,-0.21
2023-01-23T05:06:48.059Z,-0.22
2023-01-23T05:08:52.350Z,-0.2
2023-01-23T05:10:51.458Z,-0.17
2023-01-23T05:12:53.132Z,-0.19
2023-01-23T05:14:54.230Z,-0.14
2023-01-23T05:16:55.354Z,-0.14
2023-01-23T05:18:56.793Z,-0.15
2023-01-23T05:20:58.832Z,-0.1
2023-01-23T05:23:00.393Z,-0.06
2023-01-23T05:25:01.921Z,-0.07
2023-01-23T05:27:03.542Z,-0.05
2023-01-23T05:29:05.332Z,-0.06
2023-01-23T05:31:07.070Z,-0.07
2023-01-23T05:33:08.241Z,-0.07
2023-01-23T05:35:09.735Z,-0.05
2023-01-23T05:37:11.038Z,-0.03
2023-01-23T05:39:12.710Z,-0.03
2023-01-23T05:41:14.341Z,-0.03
2023-01-23T05:43:15.454Z,-0.04
2023-01-23T05:45:16.709Z,-0.06
2023-01-23T05:47:18.404Z,-0.04
2023-01-23T05:49:20.414Z,-0.03
2023-01-23T05:51:21.687Z,-0.02
2023-01-23T05:53:23.361Z,-0.04
2023-01-23T05:55:24.788Z,-0.04
2023-01-23T05:57:26.464Z,-0.02
2023-01-23T05:59:27.655Z,-0.06
2023-01-23T06:01:28.836Z,-0.07
2023-01-23T06:03:30.299Z,-0.09
2023-01-23T06:05:32.350Z,-0.07
2023-01-23T06:07:33.623Z,-0.11
2023-01-23T06:09:35.215Z,-0.08
2023-01-23T06:11:36.260Z,-0.09
2023-01-23T06:13:38.153Z,-0.13
2023-01-23T06:15:40.104Z,-0.14
2023-01-23T06:18:26.968Z,-0.13
2023-01-23T06:20:28.394Z,-0.11
2023-01-23T06:22:31.476Z,-0.11
2023-01-23T06:24:31.617Z,-0.11
2023-01-23T06:26:32.745Z,-0.14
2023-01-23T06:28:34.258Z,-0.13
2023-01-23T06:30:35.770Z,-0.15
2023-01-23T06:32:36.831Z,-0.18
2023-01-23T06:34:38.336Z,-0.17
2023-01-23T06:36:40.050Z,-0.2
2023-01-23T06:40:43.579Z,-0.19
2023-01-23T06:42:44.880Z,-0.2
2023-01-23T06:44:46.122Z,-0.21
2023-01-23T06:46:48.143Z,-0.2
2023-01-23T06:48:49.176Z,-0.2
2023-01-23T06:50:50.718Z,-0.19
2023-01-23T06:52:51.757Z,-0.21
2023-01-23T06:54:53.277Z,-0.16
2023-01-23T06:56:55.022Z,-0.2
2023-01-23T06:58:56.791Z,-0.19
2023-01-23T07:00:58.516Z,-0.19
2023-01-23T07:02:59.657Z,-0.17
2023-01-23T07:05:00.720Z,-0.19
2023-01-23T07:07:01.785Z,-0.2
2023-01-23T07:09:03.765Z,-0.2
2023-01-23T07:11:05.384Z,-0.19
2023-01-23T07:13:06.547Z,-0.18
2023-01-23T07:15:07.826Z,-0.19
2023-01-23T07:17:09.601Z,-0.17
2023-01-23T07:19:11.475Z,-0.09
2023-01-23T07:21:12.542Z,-0.03
2023-01-23T07:23:14.267Z,-0.06
2023-01-23T07:25:15.343Z,-0.05
2023-01-23T07:27:17.164Z,-0.01
2023-01-23T07:29:19.107Z,0.03
2023-01-23T07:31:20.358Z,0
2023-01-23T07:33:22.104Z,-0.01
2023-01-23T07:35:23.702Z,0.01
2023-01-23T07:37:25.503Z,0.03
2023-01-23T07:39:26.911Z,0.1
2023-01-23T07:41:28.227Z,0.16
2023-01-23T07:43:29.793Z,0.16
2023-01-23T07:45:31.779Z,0.14
2023-01-23T07:47:33.045Z,0.16
2023-01-23T07:49:34.954Z,0.16
2023-01-23T07:51:35.975Z,0.12
2023-01-23T07:53:37.811Z,0.14
2023-01-23T07:55:39.521Z,0.15
2023-01-23T07:57:41.224Z,0.18
2023-01-23T07:59:42.373Z,0.18
2023-01-23T08:01:43.644Z,0.21
2023-01-23T08:03:44.893Z,0.27
2023-01-23T08:05:46.081Z,0.28
2023-01-23T08:07:47.141Z,0.28
2023-01-23T08:09:48.468Z,0.28
2023-01-23T08:11:49.902Z,0.28
2023-01-23T08:13:51.248Z,0.3
2023-01-23T08:15:52.745Z,0.3
2023-01-23T08:17:54.603Z,0.26
2023-01-23T08:19:55.891Z,0.29
2023-01-23T08:21:57.093Z,0.31
2023-01-23T08:23:58.423Z,0.32
2023-01-23T08:25:59.745Z,0.29
2023-01-23T08:28:00.851Z,0.31
2023-01-23T08:30:02.101Z,0.31
2023-01-23T08:32:03.552Z,0.32
2023-01-23T08:34:05.307Z,0.31
2023-01-23T08:36:08.302Z,0.31
2023-01-23T08:38:09.059Z,0.27
2023-01-23T08:40:10.157Z,0.28
2023-01-23T08:42:11.797Z,0.31
2023-01-23T08:44:12.962Z,0.33
2023-01-23T08:46:14.564Z,0.33
2023-01-23T08:48:16.237Z,0.33
2023-01-23T08:50:18.111Z,0.36
2023-01-23T08:52:19.088Z,0.36
2023-01-23T08:54:20.910Z,0.37
2023-01-23T08:56:22.006Z,0.47
2023-01-23T08:58:23.176Z,0.51
2023-01-23T09:00:24.308Z,0.47
2023-01-23T09:02:26.209Z,0.48
2023-01-23T09:04:28.078Z,0.46
2023-01-23T09:06:29.697Z,0.44
2023-01-23T09:08:31.072Z,0.51
2023-01-23T09:10:32.371Z,0.47
2023-01-23T09:12:33.988Z,0.53
2023-01-23T09:14:35.180Z,0.63
2023-01-23T09:16:37.122Z,0.54
2023-01-23T09:18:38.469Z,0.6
2023-01-23T09:20:39.753Z,0.7
2023-01-23T09:22:41.129Z,0.76
2023-01-23T09:24:42.730Z,0.74
2023-01-23T09:26:43.749Z,0.82
2023-01-23T09:28:44.953Z,0.94
2023-01-23T09:30:46.641Z,1.03
2023-01-23T09:32:47.662Z,1.03
2023-01-23T09:34:48.732Z,1.19
2023-01-23T09:36:49.761Z,1.12
2023-01-23T09:38:50.925Z,1.06
2023-01-23T09:40:52.120Z,1.11
2023-01-23T09:42:53.927Z,1.07
2023-01-23T09:44:55.678Z,1.11
2023-01-23T09:46:59.034Z,1.15
2023-01-23T09:49:00.777Z,0.97
2023-01-23T09:51:02.743Z,1
2023-01-23T09:53:04.485Z,1.04
2023-01-23T09:55:05.639Z,0.95
2023-01-23T09:57:07.559Z,0.95
2023-01-23T09:59:08.757Z,0.95
2023-01-23T10:01:10.415Z,0.97
2023-01-23T10:03:11.971Z,0.98
2023-01-23T10:05:13.177Z,0.81
2023-01-23T10:07:14.490Z,0.81
2023-01-23T10:09:16.289Z,0.83
2023-01-23T10:11:17.886Z,0.81
2023-01-23T10:13:19.740Z,0.87
2023-01-23T10:15:21.907Z,0.85
2023-01-23T10:17:22.819Z,0.88
2023-01-23T10:19:24.433Z,0.89
2023-01-23T10:21:26.469Z,0.86
2023-01-23T10:23:27.760Z,0.95
2023-01-23T10:25:29.814Z,0.88
2023-01-23T10:27:31.062Z,1
2023-01-23T10:29:32.303Z,0.98
2023-01-23T10:31:33.803Z,0.96
2023-01-23T10:33:35.349Z,1.02
2023-01-23T10:35:37.086Z,1.01
2023-01-23T10:37:38.264Z,1.08
2023-01-23T10:39:40.175Z,1.11
2023-01-23T10:41:43.033Z,1.11
2023-01-23T10:43:43.021Z,1.17
2023-01-23T10:45:44.566Z,1.22
2023-01-23T10:47:49.980Z,1.19
2023-01-23T10:49:47.905Z,1.23
2023-01-23T10:51:49.395Z,1.28
2023-01-23T10:53:50.687Z,1.29
2023-01-23T10:55:52.320Z,1.3
2023-01-23T10:57:54.194Z,1.34
2023-01-23T10:59:55.755Z,1.34
2023-01-23T11:01:57.498Z,1.29
2023-01-23T11:03:58.808Z,1.29
2023-01-23T11:05:59.853Z,1.34
2023-01-23T11:08:01.678Z,1.46
2023-01-23T11:10:03.000Z,1.43
2023-01-23T11:12:04.179Z,1.4
2023-01-23T11:14:05.759Z,1.42
2023-01-23T11:16:06.957Z,1.38
2023-01-23T11:18:08.468Z,1.39
2023-01-23T11:20:10.165Z,1.38
2023-01-23T11:22:11.481Z,1.43
2023-01-23T11:24:13.029Z,1.41
2023-01-23T11:26:15.003Z,1.41
2023-01-23T11:28:17.037Z,1.47
2023-01-23T11:30:18.088Z,1.54
2023-01-23T11:32:19.159Z,1.54
2023-01-23T11:34:20.631Z,1.49
2023-01-23T11:36:22.065Z,1.39
2023-01-23T11:38:30.425Z,1.35
2023-01-23T11:40:25.133Z,1.41
2023-01-23T11:42:28.521Z,1.32
2023-01-23T11:44:30.061Z,1.39
2023-01-23T11:46:29.613Z,1.44
2023-01-23T11:48:31.488Z,1.35
2023-01-23T11:50:34.211Z,1.41
2023-01-23T11:52:34.676Z,1.39
2023-01-23T11:54:36.580Z,1.37
2023-01-23T11:56:37.853Z,1.4
2023-01-23T11:58:48.735Z,1.46
2023-01-23T12:00:41.398Z,1.33
2023-01-23T12:02:42.952Z,1.35
2023-01-23T12:04:44.940Z,1.34
2023-01-23T12:06:46.622Z,1.37
2023-01-23T12:08:47.799Z,1.37
2023-01-23T12:10:48.837Z,1.37
2023-01-23T12:12:50.161Z,1.49
2023-01-23T12:14:51.651Z,1.51
2023-01-23T12:16:53.389Z,1.52
2023-01-23T12:18:54.828Z,1.46
2023-01-23T12:20:56.013Z,1.52
2023-01-23T12:22:57.144Z,1.51
2023-01-23T12:24:59.056Z,1.49
2023-01-23T12:27:00.512Z,1.53
2023-01-23T12:29:02.286Z,1.61
2023-01-23T12:31:05.440Z,1.62
2023-01-23T12:33:06.056Z,1.7
2023-01-23T12:35:07.020Z,1.61
2023-01-23T12:37:14.390Z,1.58
2023-01-23T12:39:09.670Z,1.65
2023-01-23T12:41:11.401Z,1.75
2023-01-23T12:43:13.353Z,1.76
2023-01-23T12:45:15.166Z,1.62
2023-01-23T12:47:16.793Z,1.72
2023-01-23T12:49:18.484Z,1.74
2023-01-23T12:51:19.822Z,1.73
2023-01-23T12:53:21.713Z,1.77
2023-01-23T12:55:23.334Z,1.75
2023-01-23T12:57:27.320Z,1.77
2023-01-23T12:59:26.124Z,1.75
2023-01-23T13:01:27.997Z,1.72
2023-01-23T13:04:12.904Z,1.77
2023-01-23T13:06:14.325Z,1.84
2023-01-23T13:08:17.281Z,1.96
2023-01-23T13:10:17.633Z,1.85
2023-01-23T13:12:19.200Z,1.98
2023-01-23T13:14:20.229Z,1.95
2023-01-23T13:16:22.233Z,1.92
2023-01-23T13:18:23.579Z,1.87
2023-01-23T13:20:24.959Z,1.79
2023-01-23T13:22:29.288Z,1.73
2023-01-23T13:24:28.574Z,1.74
2023-01-23T13:26:29.685Z,1.8
2023-01-23T13:28:43.898Z,1.91
2023-01-23T13:30:33.039Z,1.92
2023-01-23T13:32:34.323Z,2.01
2023-01-23T13:34:36.189Z,2
2023-01-23T13:36:37.303Z,1.8
2023-01-23T13:38:38.497Z,1.78
2023-01-23T13:40:40.125Z,1.77
2023-01-23T13:42:41.284Z,1.73
2023-01-23T13:44:42.972Z,1.72
2023-01-23T14:21:09.599Z,1.45
2023-01-23T14:23:12.193Z,1.57
2023-01-23T14:25:13.807Z,1.75
2023-01-23T14:27:16.895Z,1.85
2023-01-23T14:29:17.109Z,2.33
2023-01-23T14:31:18.736Z,2.7
2023-01-23T14:33:20.194Z,2.59
2023-01-23T14:35:21.826Z,2.51
2023-01-23T14:37:23.016Z,2.42
2023-01-23T14:39:24.213Z,2.51
2023-01-23T14:41:31.085Z,2.49
2023-01-23T14:45:27.985Z,2.75
2023-01-23T14:47:34.007Z,2.71
2023-01-23T14:49:31.403Z,2.35
2023-01-23T14:51:33.160Z,2.18
2023-01-23T14:53:34.417Z,2.12
2023-01-23T14:55:35.978Z,2.04
2023-01-23T14:57:37.301Z,1.84
2023-01-23T14:59:39.231Z,1.82
2023-01-23T15:01:40.745Z,1.77
2023-01-23T15:03:42.618Z,1.75
2023-01-23T15:05:44.400Z,1.74
2023-01-23T15:07:46.323Z,1.76
2023-01-23T15:09:47.380Z,1.74
2023-01-23T15:11:48.841Z,1.75
2023-01-23T15:13:50.794Z,1.74
2023-01-23T15:15:52.001Z,1.75
2023-01-23T15:17:53.258Z,1.77
2023-01-23T15:19:54.198Z,1.8
2023-01-23T15:21:55.542Z,1.88
2023-01-23T15:23:57.050Z,1.92
2023-01-23T15:26:04.949Z,1.94
2023-01-23T15:28:00.601Z,1.92
2023-01-23T15:30:01.622Z,1.89
2023-01-23T15:32:03.217Z,1.88
2023-01-23T15:34:04.644Z,1.9
2023-01-23T15:36:06.494Z,1.89
2023-01-23T15:38:09.528Z,1.82
2023-01-23T15:40:09.586Z,1.81
2023-01-23T15:42:11.305Z,1.73
2023-01-23T15:44:12.745Z,1.62
2023-01-23T15:46:14.564Z,1.49
2023-01-23T15:48:16.420Z,1.42
2023-01-23T15:50:17.986Z,1.38
2023-01-23T15:52:19.984Z,1.21
2023-01-23T15:54:21.285Z,1.16
2023-01-23T15:56:22.499Z,1.12
2023-01-23T15:58:24.434Z,1.03
2023-01-23T16:00:26.047Z,1.09
2023-01-23T16:02:32.457Z,1.02
2023-01-23T16:04:28.687Z,1.04
2023-01-23T16:06:30.035Z,1.09
2023-01-23T16:08:31.079Z,1.11
2023-01-23T16:10:32.289Z,1.04
2023-01-23T16:12:33.391Z,1.02
2023-01-23T16:14:34.535Z,1.04
2023-01-23T16:16:36.050Z,1
2023-01-23T16:18:37.078Z,0.95
2023-01-23T16:20:38.191Z,0.89
2023-01-23T16:22:39.607Z,0.82
2023-01-23T16:24:41.287Z,0.74
2023-01-23T16:26:42.511Z,0.68
2023-01-23T16:28:43.603Z,0.74
2023-01-23T16:30:45.308Z,0.92
2023-01-23T16:32:46.892Z,0.99
2023-01-23T16:34:47.921Z,0.92
2023-01-23T16:36:49.524Z,0.94
2023-01-23T16:38:51.440Z,0.93
2023-01-23T16:40:52.536Z,0.94
2023-01-23T16:42:54.069Z,0.96
2023-01-23T16:44:56.077Z,1.12
2023-01-23T16:46:57.746Z,1.1
2023-01-23T16:48:59.495Z,1.11
2023-01-23T16:51:01.041Z,1.25
2023-01-23T16:53:02.438Z,1.28
2023-01-23T16:55:04.056Z,1.3
2023-01-23T16:57:05.491Z,1.28
2023-01-23T16:59:07.007Z,1.18
2023-01-23T17:01:08.926Z,1.27
2023-01-23T17:03:10.553Z,1.32
2023-01-23T17:05:11.574Z,1.34
2023-01-23T17:07:13.307Z,1.24
2023-01-23T17:09:14.691Z,1.3
2023-01-23T17:11:16.025Z,1.43
2023-01-23T17:13:17.217Z,1.39
2023-01-23T17:15:18.421Z,1.3
2023-01-23T17:17:19.502Z,1.19
2023-01-23T17:19:21.121Z,1.15
2023-01-23T17:21:22.632Z,1.27
2023-01-23T17:23:23.997Z,1.18
2023-01-23T17:25:25.520Z,1.22
2023-01-23T17:27:27.530Z,1.23
2023-01-23T17:29:29.139Z,1.24
2023-01-23T17:31:31.036Z,1.29
2023-01-23T17:33:32.208Z,1.33
2023-01-23T17:35:33.394Z,1.34
2023-01-23T17:37:34.779Z,1.31
2023-01-23T17:39:35.883Z,1.34
2023-01-23T17:41:37.579Z,1.34
2023-01-23T17:43:38.790Z,1.35
2023-01-23T17:45:40.166Z,1.39
2023-01-23T17:47:42.141Z,1.39
2023-01-23T17:51:44.665Z,1.43
2023-01-23T17:53:46.642Z,1.4
2023-01-23T17:55:48.176Z,1.54
2023-01-23T17:57:49.951Z,1.49
2023-01-23T17:59:51.600Z,1.55
2023-01-23T18:01:53.579Z,1.56
2023-01-23T18:03:55.236Z,1.61
2023-01-23T18:05:56.825Z,1.58
2023-01-23T18:07:58.058Z,1.64
2023-01-23T18:09:59.753Z,1.65
2023-01-23T18:12:01.848Z,1.61
2023-01-23T18:14:02.976Z,1.66
2023-01-23T18:16:04.167Z,1.68
2023-01-23T18:18:06.056Z,1.7
2023-01-23T18:20:07.807Z,1.68
2023-01-23T18:22:08.899Z,1.72
2023-01-23T18:24:10.336Z,1.73
2023-01-23T18:26:11.651Z,1.75
2023-01-23T18:28:13.276Z,1.72
2023-01-23T18:30:14.603Z,1.75
2023-01-23T18:34:17.577Z,1.73
2023-01-23T18:36:19.339Z,1.71
2023-01-23T18:38:21.174Z,1.74
2023-01-23T18:40:22.806Z,1.76
2023-01-23T18:42:24.800Z,1.74
2023-01-23T18:44:26.086Z,1.7
2023-01-23T18:46:27.148Z,1.75
2023-01-23T18:48:28.391Z,1.78
2023-01-23T18:50:30.031Z,1.78
2023-01-23T18:52:31.131Z,1.75
2023-01-23T18:54:32.555Z,1.75
2023-01-23T18:56:34.108Z,1.74
2023-01-23T18:58:35.688Z,1.73
2023-01-23T19:00:36.865Z,1.72
2023-01-23T19:02:37.960Z,1.7
2023-01-23T19:04:39.129Z,1.7
2023-01-23T19:06:40.372Z,1.71
2023-01-23T19:08:41.654Z,1.73
2023-01-23T19:10:48.313Z,1.75
2023-01-23T19:12:44.550Z,1.71
2023-01-23T19:14:45.849Z,1.7
2023-01-23T19:16:47.576Z,1.68
2023-01-23T19:18:49.323Z,1.73
2023-01-23T19:20:51.263Z,1.73
2023-01-23T19:22:52.983Z,1.7
2023-01-23T19:24:54.848Z,1.7
2023-01-23T19:26:56.077Z,1.68
2023-01-23T19:28:58.436Z,1.74
2023-01-23T19:30:59.406Z,1.7
2023-01-23T19:33:00.950Z,1.71
2023-01-23T19:35:13.241Z,1.72
2023-01-23T19:37:03.895Z,1.7
2023-01-23T19:39:05.541Z,1.69
2023-01-23T19:41:07.055Z,1.72
2023-01-23T19:43:14.330Z,1.69
2023-01-23T19:45:10.247Z,1.65
2023-01-23T19:47:11.952Z,1.68
2023-01-23T19:49:57.303Z,1.66
2023-01-23T19:51:58.390Z,1.67
2023-01-23T19:53:59.961Z,1.62
2023-01-23T19:56:01.845Z,1.59
2023-01-23T19:58:03.579Z,1.57
2023-01-23T20:00:05.260Z,1.53
2023-01-23T20:02:07.176Z,1.52
2023-01-23T20:04:08.515Z,1.51
2023-01-23T20:06:10.246Z,1.53
2023-01-23T20:08:11.779Z,1.51
2023-01-23T20:10:13.516Z,1.49
2023-01-23T20:12:14.477Z,1.47
2023-01-23T20:14:16.051Z,1.48
2023-01-23T20:16:17.807Z,1.46
2023-01-23T20:18:18.866Z,1.43
2023-01-23T20:20:22.180Z,1.42
2023-01-23T20:22:22.084Z,1.42
2023-01-23T20:24:23.639Z,1.39
2023-01-23T20:26:25.522Z,1.41
2023-01-23T20:28:27.426Z,1.41
2023-01-23T20:30:30.184Z,1.35
2023-01-23T20:32:31.066Z,1.35
2023-01-23T20:34:33.324Z,1.35
2023-01-23T20:36:33.562Z,1.37
2023-01-23T20:38:35.286Z,1.35
2023-01-23T20:40:36.987Z,1.34
2023-01-23T20:42:38.081Z,1.34
2023-01-23T20:44:40.858Z,1.32
2023-01-23T20:46:41.867Z,1.34
2023-01-23T20:48:42.924Z,1.32
2023-01-23T20:50:44.074Z,1.31
2023-01-23T20:52:45.719Z,1.31
2023-01-23T20:54:47.566Z,1.33
2023-01-23T20:56:49.595Z,1.27
2023-01-23T20:58:51.437Z,1.26
2023-01-23T21:00:52.906Z,1.27
2023-01-23T21:02:54.487Z,1.27
2023-01-23T21:04:55.872Z,1.24
2023-01-23T21:06:57.288Z,1.28
2023-01-23T21:08:58.870Z,1.29
2023-01-23T21:11:00.579Z,1.27
2023-01-23T21:13:02.097Z,1.27
2023-01-23T21:15:03.934Z,1.27
2023-01-23T21:17:05.139Z,1.23
2023-01-23T21:19:06.979Z,1.2
2023-01-23T21:21:08.430Z,1.23
2023-01-23T21:23:10.202Z,1.23
2023-01-23T21:25:11.511Z,1.22
2023-01-23T21:29:14.101Z,1.23
2023-01-23T21:31:15.543Z,1.27
2023-01-23T21:33:17.272Z,1.2
2023-01-23T21:35:19.152Z,1.2
2023-01-23T21:37:20.653Z,1.19
2023-01-23T21:39:22.016Z,1.2
2023-01-23T21:41:23.341Z,1.17
2023-01-23T21:43:25.144Z,1.15
2023-01-23T21:45:26.383Z,1.16
2023-01-23T21:47:28.196Z,1.18
2023-01-23T21:49:29.700Z,1.2
2023-01-23T21:51:31.447Z,1.17
2023-01-23T21:53:32.633Z,1.2
2023-01-23T21:55:34.473Z,1.19
2023-01-23T21:57:35.888Z,1.21
2023-01-23T21:59:37.459Z,1.16
2023-01-23T22:01:38.600Z,1.15
2023-01-23T22:03:40.053Z,1.18
2023-01-23T22:05:41.378Z,1.18
2023-01-23T22:07:42.912Z,1.15
2023-01-23T22:09:44.175Z,1.13
2023-01-23T22:11:45.345Z,1.14
2023-01-23T22:13:46.460Z,1.11
2023-01-23T22:17:49.625Z,1.16
2023-01-23T22:19:51.598Z,1.17
2023-01-23T22:21:52.679Z,1.14
2023-01-23T22:23:54.533Z,1.11
2023-01-23T22:25:56.311Z,1.12
2023-01-23T22:27:58.153Z,1.15
2023-01-23T22:29:59.378Z,1.16
2023-01-23T22:32:00.891Z,1.13
2023-01-23T22:34:02.279Z,1.11
2023-01-23T22:36:04.122Z,1.11
2023-01-23T22:38:05.338Z,1.14
2023-01-23T22:40:06.937Z,1.13
2023-01-23T22:42:08.870Z,1.16
2023-01-23T22:44:10.655Z,1.11
2023-01-23T22:46:12.628Z,1.15
2023-01-23T22:48:13.883Z,1.19
2023-01-23T22:50:16.985Z,1.16
2023-01-23T22:52:17.295Z,1.13
2023-01-23T22:54:18.574Z,1.15
2023-01-23T22:56:20.554Z,1.17
2023-01-23T22:58:22.463Z,1.13
2023-01-23T23:00:23.794Z,1.18
2023-01-23T23:02:25.564Z,1.18
2023-01-23T23:04:26.861Z,1.16
2023-01-23T23:06:28.571Z,1.16
2023-01-23T23:08:30.381Z,1.19
2023-01-23T23:10:31.380Z,1.12
2023-01-23T23:12:33.047Z,1.23
2023-01-23T23:14:34.464Z,1.18
2023-01-23T23:16:35.753Z,1.14
2023-01-23T23:18:39.259Z,1.18
2023-01-23T23:20:39.377Z,1.17
2023-01-23T23:22:40.793Z,1.18
2023-01-23T23:24:41.979Z,1.16
2023-01-23T23:26:43.911Z,1.17
2023-01-23T23:28:45.910Z,1.16
2023-01-23T23:30:47.517Z,1.18
2023-01-23T23:32:48.784Z,1.19
2023-01-23T23:34:50.555Z,1.22
2023-01-23T23:36:52.312Z,1.21
2023-01-23T23:38:53.482Z,1.23
2023-01-23T23:42:56.957Z,1.21
2023-01-23T23:44:58.209Z,1.21
2023-01-23T23:47:00.115Z,1.21
2023-01-23T23:49:01.437Z,1.2
2023-01-23T23:51:03.022Z,1.25
2023-01-23T23:53:04.831Z,1.23
2023-01-23T23:55:06.114Z,1.19
2023-01-23T23:57:07.883Z,1.25
2023-01-23T23:59:09.263Z,1.22
